createdAt,value
2022-08-29T00:02:07.729Z,6.00
2022-08-29T00:04:36.719Z,6.03
2022-08-29T00:07:06.561Z,6.05
2022-08-29T00:09:34.825Z,5.95
2022-08-29T00:12:03.022Z,5.47
2022-08-29T00:14:31.419Z,5.50
2022-08-29T00:17:01.170Z,5.85
2022-08-29T00:19:29.404Z,6.00
2022-08-29T00:21:57.513Z,6.35
2022-08-29T00:24:27.469Z,6.30
2022-08-29T00:26:55.757Z,6.43
2022-08-29T00:29:23.862Z,6.20
2022-08-29T00:31:51.999Z,6.53
2022-08-29T00:34:20.432Z,6.60
2022-08-29T00:36:49.072Z,6.80
2022-08-29T00:39:17.559Z,6.78
2022-08-29T00:44:20.959Z,6.38
2022-08-29T00:46:53.649Z,7.18
2022-08-29T00:49:31.270Z,6.60
2022-08-29T00:52:01.619Z,7.07
2022-08-29T00:54:31.096Z,7.07
2022-08-29T00:57:01.317Z,6.93
2022-08-29T00:59:34.024Z,6.50
2022-08-29T01:02:03.406Z,6.30
2022-08-29T01:04:31.977Z,6.00
2022-08-29T01:07:00.880Z,6.43
2022-08-29T01:09:30.667Z,6.43
2022-08-29T01:12:17.587Z,5.97
2022-08-29T01:14:50.162Z,6.13
2022-08-29T01:17:22.163Z,5.80
2022-08-29T01:19:58.339Z,6.22
2022-08-29T01:22:40.961Z,6.20
2022-08-29T01:25:12.968Z,6.20
2022-08-29T01:27:45.712Z,6.47
2022-08-29T01:30:15.513Z,6.10
2022-08-29T01:32:44.158Z,6.50
2022-08-29T01:35:12.505Z,6.50
2022-08-29T01:37:44.576Z,5.80
2022-08-29T01:40:14.822Z,6.18
2022-08-29T01:42:44.069Z,5.82
2022-08-29T01:45:12.704Z,6.63
2022-08-29T01:47:41.307Z,6.28
2022-08-29T01:50:12.821Z,6.35
2022-08-29T01:52:42.141Z,6.50
2022-08-29T01:55:10.612Z,6.47
2022-08-29T01:57:41.739Z,6.28
2022-08-29T02:00:11.854Z,6.40
2022-08-29T02:02:41.223Z,6.30
2022-08-29T02:05:10.137Z,6.85
2022-08-29T02:07:38.401Z,6.20
2022-08-29T02:10:07.965Z,6.15
2022-08-29T02:12:36.933Z,6.18
2022-08-29T02:15:08.325Z,6.00
2022-08-29T02:17:36.493Z,5.78
2022-08-29T02:20:08.156Z,6.22
2022-08-29T02:22:37.251Z,6.63
2022-08-29T02:25:28.270Z,5.90
2022-08-29T02:27:58.060Z,5.90
2022-08-29T02:30:27.647Z,6.25
2022-08-29T02:32:55.925Z,6.15
2022-08-29T02:35:24.535Z,6.45
2022-08-29T02:37:53.224Z,5.90
2022-08-29T02:40:24.659Z,6.43
2022-08-29T02:42:59.913Z,5.68
2022-08-29T02:45:29.877Z,5.90
2022-08-29T02:47:58.474Z,5.97
2022-08-29T02:50:27.017Z,5.75
2022-08-29T02:52:55.165Z,5.40
2022-08-29T02:55:25.197Z,5.50
2022-08-29T02:57:54.485Z,5.57
2022-08-29T03:00:25.571Z,5.60
2022-08-29T03:02:56.155Z,5.90
2022-08-29T03:05:27.529Z,5.72
2022-08-29T03:07:56.153Z,5.53
2022-08-29T03:10:24.981Z,5.93
2022-08-29T03:12:53.150Z,6.13
2022-08-29T03:15:22.398Z,5.55
2022-08-29T03:17:51.472Z,5.65
2022-08-29T03:20:23.064Z,6.30
2022-08-29T03:22:51.964Z,5.93
2022-08-29T03:25:20.978Z,5.45
2022-08-29T03:27:49.227Z,6.13
2022-08-29T03:30:18.813Z,6.20
2022-08-29T03:32:48.396Z,6.32
2022-08-29T03:35:18.153Z,5.68
2022-08-29T03:37:48.075Z,6.45
2022-08-29T03:40:19.183Z,5.85
2022-08-29T03:42:47.947Z,6.25
2022-08-29T03:45:18.642Z,6.35
2022-08-29T03:47:47.490Z,6.55
2022-08-29T03:50:17.835Z,6.60
2022-08-29T03:52:47.762Z,7.10
2022-08-29T03:55:16.690Z,6.50
2022-08-29T03:57:45.664Z,6.80
2022-08-29T04:00:17.254Z,6.93
2022-08-29T04:02:47.518Z,6.43
2022-08-29T04:05:18.208Z,7.00
2022-08-29T04:07:50.749Z,7.20
2022-08-29T04:10:22.459Z,7.43
2022-08-29T04:12:54.492Z,10.27
2022-08-29T04:15:24.091Z,7.90
2022-08-29T04:17:54.495Z,8.60
2022-08-29T04:20:25.443Z,8.75
2022-08-29T04:22:56.569Z,8.07
2022-08-29T04:25:26.514Z,8.10
2022-08-29T04:27:56.365Z,8.73
2022-08-29T04:30:28.148Z,7.28
2022-08-29T04:32:56.581Z,8.50
2022-08-29T04:35:24.678Z,8.25
2022-08-29T04:37:53.001Z,7.82
2022-08-29T04:40:24.116Z,8.68
2022-08-29T04:42:52.438Z,8.50
2022-08-29T04:45:23.166Z,7.95
2022-08-29T04:47:51.277Z,8.60
2022-08-29T04:50:22.050Z,10.20
2022-08-29T04:52:52.436Z,22.88
2022-08-29T04:55:25.642Z,8.80
2022-08-29T04:57:57.086Z,9.23
2022-08-29T05:00:28.693Z,8.70
2022-08-29T05:02:58.584Z,9.30
2022-08-29T05:05:27.939Z,8.52
2022-08-29T05:07:56.061Z,8.52
2022-08-29T05:10:26.378Z,8.02
2022-08-29T05:12:54.516Z,7.93
2022-08-29T05:15:22.624Z,9.07
2022-08-29T05:17:50.723Z,7.80
2022-08-29T05:20:19.079Z,8.57
2022-08-29T05:22:47.419Z,8.70
2022-08-29T05:25:18.226Z,9.07
2022-08-29T05:27:48.298Z,8.90
2022-08-29T05:30:34.789Z,8.07
2022-08-29T05:33:03.652Z,7.85
2022-08-29T05:35:31.807Z,7.85
2022-08-29T05:37:59.971Z,7.80
2022-08-29T05:40:28.665Z,8.73
2022-08-29T05:42:58.213Z,7.07
2022-08-29T05:45:26.330Z,6.80
2022-08-29T05:47:55.989Z,7.70
2022-08-29T05:50:24.671Z,7.07
2022-08-29T05:52:52.787Z,7.15
2022-08-29T05:55:21.271Z,7.18
2022-08-29T05:57:51.782Z,7.22
2022-08-29T06:00:22.038Z,7.10
2022-08-29T06:02:51.023Z,7.53
2022-08-29T06:05:19.456Z,7.00
2022-08-29T06:07:48.438Z,8.77
2022-08-29T06:10:16.559Z,6.40
2022-08-29T06:12:44.961Z,7.38
2022-08-29T06:15:13.181Z,7.22
2022-08-29T06:17:42.799Z,6.95
2022-08-29T06:20:12.094Z,6.25
2022-08-29T06:22:40.745Z,6.55
2022-08-29T06:25:28.304Z,5.80
2022-08-29T06:27:58.352Z,5.78
2022-08-29T06:30:26.628Z,5.72
2022-08-29T06:32:56.199Z,5.82
2022-08-29T06:35:24.381Z,5.40
2022-08-29T06:37:53.395Z,5.70
2022-08-29T06:40:21.627Z,5.45
2022-08-29T06:42:49.832Z,5.80
2022-08-29T06:45:18.333Z,5.65
2022-08-29T06:47:47.542Z,6.38
2022-08-29T06:50:17.728Z,5.43
2022-08-29T06:52:46.967Z,6.05
2022-08-29T06:55:15.810Z,6.72
2022-08-29T06:57:45.989Z,9.32
2022-08-29T07:00:22.339Z,6.10
2022-08-29T07:02:52.394Z,6.20
2022-08-29T07:05:23.255Z,5.90
2022-08-29T07:07:52.546Z,6.70
2022-08-29T07:10:22.838Z,12.18
2022-08-29T07:12:52.073Z,7.32
2022-08-29T07:15:21.326Z,9.82
2022-08-29T07:17:49.986Z,7.50
2022-08-29T07:20:18.802Z,7.78
2022-08-29T07:22:51.488Z,4.88
2022-08-29T07:25:21.779Z,4.43
2022-08-29T07:27:52.037Z,5.00
2022-08-29T07:30:22.142Z,4.35
2022-08-29T07:32:50.308Z,5.15
2022-08-29T07:35:29.570Z,5.50
2022-08-29T07:38:01.234Z,5.35
2022-08-29T07:40:30.070Z,5.05
2022-08-29T07:42:58.586Z,5.05
2022-08-29T07:45:26.827Z,5.22
2022-08-29T07:47:54.999Z,5.07
2022-08-29T07:50:23.339Z,4.93
2022-08-29T07:52:52.590Z,5.25
2022-08-29T07:55:23.103Z,5.18
2022-08-29T07:57:52.703Z,4.75
2022-08-29T08:00:22.012Z,5.10
2022-08-29T08:02:50.259Z,4.90
2022-08-29T08:05:18.827Z,5.03
2022-08-29T08:07:47.256Z,4.57
2022-08-29T08:10:17.204Z,5.65
2022-08-29T08:12:47.649Z,4.80
2022-08-29T08:15:16.825Z,5.05
2022-08-29T08:17:44.955Z,5.07
2022-08-29T08:20:14.063Z,4.88
2022-08-29T08:22:42.624Z,4.97
2022-08-29T08:25:11.154Z,4.97
2022-08-29T08:27:43.474Z,5.10
2022-08-29T08:30:14.691Z,4.87
2022-08-29T08:32:46.898Z,4.60
2022-08-29T08:35:16.783Z,4.50
2022-08-29T08:37:45.389Z,6.80
2022-08-29T08:40:23.206Z,5.53
2022-08-29T08:42:51.822Z,4.60
2022-08-29T08:45:26.808Z,5.10
2022-08-29T08:48:03.820Z,4.85
2022-08-29T08:50:41.886Z,5.10
2022-08-29T08:53:19.752Z,4.70
2022-08-29T08:55:51.525Z,14.27
2022-08-29T08:58:31.104Z,5.63
2022-08-29T09:01:03.629Z,5.70
2022-08-29T09:04:07.359Z,4.90
2022-08-29T09:06:52.020Z,4.78
2022-08-29T09:09:30.414Z,4.32
2022-08-29T09:12:10.237Z,5.22
2022-08-29T09:14:54.933Z,4.63
2022-08-29T09:17:30.767Z,4.47
2022-08-29T09:20:09.137Z,4.55
2022-08-29T09:22:40.685Z,4.50
2022-08-29T09:25:11.075Z,4.60
2022-08-29T09:27:41.360Z,5.00
2022-08-29T09:30:12.452Z,4.72
2022-08-29T09:32:58.207Z,5.15
2022-08-29T09:35:29.874Z,5.65
2022-08-29T09:38:01.554Z,5.30
2022-08-29T09:40:49.894Z,5.28
2022-08-29T09:43:25.439Z,5.13
2022-08-29T09:46:09.134Z,5.25
2022-08-29T09:48:40.986Z,5.75
2022-08-29T09:51:15.918Z,5.40
2022-08-29T09:53:44.814Z,5.00
2022-08-29T09:56:19.894Z,5.00
2022-08-29T09:59:00.023Z,4.50
2022-08-29T10:01:29.783Z,4.60
2022-08-29T10:04:01.518Z,4.80
2022-08-29T10:06:32.608Z,5.10
2022-08-29T10:09:05.629Z,4.97
2022-08-29T10:11:44.057Z,4.82
2022-08-29T10:14:18.018Z,5.22
2022-08-29T10:16:53.859Z,4.90
2022-08-29T10:19:33.177Z,4.82
2022-08-29T10:22:07.102Z,9.25
2022-08-29T10:24:55.095Z,5.40
2022-08-29T10:27:40.671Z,4.63
2022-08-29T10:30:12.122Z,4.70
2022-08-29T10:33:17.893Z,5.30
2022-08-29T10:35:55.743Z,6.07
2022-08-29T10:38:39.089Z,5.97
2022-08-29T10:41:17.209Z,7.55
2022-08-29T10:43:51.406Z,4.50
2022-08-29T10:46:42.123Z,4.60
2022-08-29T10:49:21.883Z,4.78
2022-08-29T10:52:01.099Z,4.47
2022-08-29T10:54:38.698Z,7.10
2022-08-29T10:57:09.407Z,6.50
2022-08-29T10:59:50.415Z,5.57
2022-08-29T11:02:37.234Z,4.60
2022-08-29T11:05:12.407Z,4.63
2022-08-29T11:07:48.105Z,4.80
2022-08-29T11:10:20.509Z,6.22
2022-08-29T11:12:55.246Z,6.95
2022-08-29T11:15:29.531Z,6.43
2022-08-29T11:18:10.216Z,4.45
2022-08-29T11:20:44.655Z,4.50
2022-08-29T11:23:23.882Z,3.58
2022-08-29T11:25:52.355Z,20.17
2022-08-29T11:28:38.583Z,6.10
2022-08-29T11:31:13.259Z,4.00
2022-08-29T11:33:47.852Z,4.15
2022-08-29T11:36:41.297Z,4.00
2022-08-29T11:39:57.541Z,3.63
2022-08-29T11:45:35.471Z,3.83
2022-08-29T11:48:20.818Z,3.50
2022-08-29T11:53:33.788Z,3.75
2022-08-29T11:56:21.921Z,3.72
2022-08-29T11:58:53.827Z,3.50
2022-08-29T12:02:00.745Z,3.30
2022-08-29T12:04:52.293Z,5.63
2022-08-29T12:07:21.593Z,3.08
2022-08-29T12:09:53.096Z,3.35
2022-08-29T12:12:47.380Z,3.05
2022-08-29T12:15:59.944Z,2.75
2022-08-29T12:18:40.321Z,2.95
2022-08-29T12:21:47.247Z,2.72
2022-08-29T12:24:31.464Z,2.90
2022-08-29T12:27:00.303Z,2.90
2022-08-29T12:29:33.345Z,2.70
2022-08-29T12:32:40.122Z,2.75
2022-08-29T12:35:32.948Z,2.60
2022-08-29T12:38:18.176Z,2.75
2022-08-29T12:41:05.890Z,2.70
2022-08-29T12:43:41.381Z,3.35
2022-08-29T12:46:18.455Z,3.25
2022-08-29T12:48:57.481Z,2.75
2022-08-29T12:51:35.985Z,2.50
2022-08-29T12:54:04.993Z,2.40
2022-08-29T12:56:33.836Z,2.05
2022-08-29T12:59:04.912Z,2.45
2022-08-29T13:01:37.913Z,2.05
2022-08-29T13:06:54.995Z,2.30
2022-08-29T13:09:27.655Z,2.30
2022-08-29T13:12:11.928Z,2.22
2022-08-29T13:14:52.948Z,4.43
2022-08-29T13:17:22.803Z,3.85
2022-08-29T13:20:28.245Z,2.55
2022-08-29T13:23:09.523Z,2.15
2022-08-29T13:25:45.270Z,2.50
2022-08-29T13:28:21.020Z,2.40
2022-08-29T13:31:22.491Z,2.22
2022-08-29T13:34:17.804Z,2.30
2022-08-29T13:36:59.396Z,2.80
2022-08-29T13:39:41.219Z,2.00
2022-08-29T13:42:32.896Z,2.30
2022-08-29T13:45:08.461Z,3.08
2022-08-29T13:47:46.621Z,3.58
2022-08-29T13:50:17.115Z,2.63
2022-08-29T13:52:45.476Z,2.20
2022-08-29T13:55:15.038Z,2.20
2022-08-29T13:57:47.780Z,2.40
2022-08-29T14:00:17.428Z,2.47
2022-08-29T14:02:53.673Z,2.50
2022-08-29T14:05:22.081Z,2.50
2022-08-29T14:07:50.607Z,2.28
2022-08-29T14:10:20.679Z,2.30
2022-08-29T14:12:48.814Z,2.20
2022-08-29T14:15:18.634Z,5.80
2022-08-29T14:17:48.862Z,5.28
2022-08-29T14:20:21.795Z,2.60
2022-08-29T14:22:50.496Z,2.20
2022-08-29T14:25:21.057Z,1.98
2022-08-29T14:27:49.778Z,2.08
2022-08-29T14:30:21.322Z,2.28
2022-08-29T14:32:49.800Z,2.35
2022-08-29T14:35:26.842Z,2.20
2022-08-29T14:38:01.320Z,2.15
2022-08-29T14:40:32.348Z,1.90
2022-08-29T14:43:02.201Z,2.05
2022-08-29T14:45:31.618Z,1.90
2022-08-29T14:47:59.815Z,2.28
2022-08-29T14:50:28.845Z,2.30
2022-08-29T14:52:57.057Z,2.38
2022-08-29T14:55:25.397Z,2.10
2022-08-29T14:57:55.000Z,2.00
2022-08-29T15:00:26.261Z,2.15
2022-08-29T15:02:54.954Z,2.33
2022-08-29T15:05:23.661Z,2.50
2022-08-29T15:07:52.458Z,2.13
2022-08-29T15:10:24.357Z,2.13
2022-08-29T15:12:54.421Z,2.87
2022-08-29T15:15:29.197Z,12.90
2022-08-29T15:17:57.910Z,2.85
2022-08-29T15:20:36.809Z,2.17
2022-08-29T15:23:06.525Z,2.25
2022-08-29T15:25:35.271Z,2.53
2022-08-29T15:28:05.745Z,2.72
2022-08-29T15:30:34.453Z,2.08
2022-08-29T15:33:02.744Z,2.20
2022-08-29T15:35:31.206Z,2.10
2022-08-29T15:37:59.388Z,2.72
2022-08-29T15:40:27.956Z,4.00
2022-08-29T15:42:56.264Z,2.70
2022-08-29T15:45:25.803Z,2.70
2022-08-29T15:47:54.471Z,2.70
2022-08-29T15:50:24.367Z,3.22
2022-08-29T15:52:53.053Z,3.13
2022-08-29T15:55:21.606Z,3.45
2022-08-29T15:57:52.511Z,3.60
2022-08-29T16:00:29.610Z,3.78
2022-08-29T16:03:06.663Z,3.10
2022-08-29T16:05:38.248Z,3.20
2022-08-29T16:08:07.133Z,3.42
2022-08-29T16:10:39.183Z,3.55
2022-08-29T16:13:07.696Z,3.53
2022-08-29T16:15:36.482Z,3.50
2022-08-29T16:18:06.754Z,3.55
2022-08-29T16:20:36.342Z,3.65
2022-08-29T16:23:06.332Z,3.50
2022-08-29T16:25:35.064Z,3.25
2022-08-29T16:28:06.079Z,3.70
2022-08-29T16:30:34.952Z,3.63
2022-08-29T16:33:08.011Z,4.03
2022-08-29T16:35:36.266Z,3.80
2022-08-29T16:38:04.648Z,4.13
2022-08-29T16:40:35.433Z,4.00
2022-08-29T16:43:05.498Z,4.40
2022-08-29T16:45:34.418Z,3.88
2022-08-29T16:48:03.118Z,3.80
2022-08-29T16:50:34.640Z,4.05
2022-08-29T16:53:02.939Z,4.43
2022-08-29T16:55:31.758Z,4.90
2022-08-29T16:58:17.806Z,4.57
2022-08-29T17:00:46.392Z,3.92
2022-08-29T17:03:19.382Z,4.47
2022-08-29T17:05:50.113Z,4.05
2022-08-29T17:08:17.405Z,4.10
2022-08-29T17:10:45.071Z,3.88
2022-08-29T17:13:12.557Z,3.42
2022-08-29T17:15:39.862Z,3.75
2022-08-29T17:18:08.025Z,3.72
2022-08-29T17:20:37.679Z,3.22
2022-08-29T17:23:10.286Z,3.33
2022-08-29T17:25:39.298Z,3.60
2022-08-29T17:28:27.716Z,3.20
2022-08-29T17:30:57.497Z,3.80
2022-08-29T17:33:26.048Z,3.67
2022-08-29T17:35:54.581Z,3.55
2022-08-29T17:38:24.585Z,3.70
2022-08-29T17:40:57.124Z,3.45
2022-08-29T17:43:27.624Z,2.97
2022-08-29T17:45:57.571Z,3.58
2022-08-29T17:48:26.226Z,3.78
2022-08-29T17:50:54.414Z,3.25
2022-08-29T17:53:25.096Z,3.25
2022-08-29T17:55:53.909Z,3.20
2022-08-29T17:58:23.375Z,3.25
2022-08-29T18:00:52.388Z,3.97
2022-08-29T18:03:20.751Z,3.70
2022-08-29T18:05:49.033Z,3.47
2022-08-29T18:08:17.546Z,3.80
2022-08-29T18:10:47.305Z,3.90
2022-08-29T18:13:19.717Z,3.65
2022-08-29T18:15:50.701Z,3.58
2022-08-29T18:18:21.424Z,3.97
2022-08-29T18:20:49.617Z,4.13
2022-08-29T18:23:17.858Z,3.50
2022-08-29T18:25:47.878Z,4.20
2022-08-29T18:28:16.221Z,3.90
2022-08-29T18:30:44.557Z,3.95
2022-08-29T18:33:13.090Z,4.10
2022-08-29T18:35:41.278Z,4.30
2022-08-29T18:38:10.278Z,4.20
2022-08-29T18:40:39.917Z,4.07
2022-08-29T18:43:09.799Z,3.97
2022-08-29T18:45:38.390Z,4.28
2022-08-29T18:48:06.944Z,4.05
2022-08-29T18:50:35.236Z,3.75
2022-08-29T18:53:08.855Z,4.32
2022-08-29T18:58:06.183Z,3.90
2022-08-29T19:00:36.330Z,4.00
2022-08-29T19:03:05.472Z,3.85
2022-08-29T19:05:35.495Z,3.58
2022-08-29T19:08:04.046Z,3.63
2022-08-29T19:10:33.351Z,3.50
2022-08-29T19:13:01.575Z,4.15
2022-08-29T19:15:30.748Z,3.97
2022-08-29T19:18:00.642Z,3.97
2022-08-29T19:20:46.758Z,3.80
2022-08-29T19:23:16.162Z,4.20
2022-08-29T19:25:44.934Z,3.92
2022-08-29T19:28:13.344Z,3.85
2022-08-29T19:30:42.050Z,3.80
2022-08-29T19:33:12.640Z,3.65
2022-08-29T19:35:40.958Z,3.80
2022-08-29T19:38:10.068Z,4.00
2022-08-29T19:40:40.171Z,3.90
2022-08-29T19:43:13.606Z,3.95
2022-08-29T19:45:44.559Z,3.85
2022-08-29T19:48:15.192Z,3.85
2022-08-29T19:50:47.336Z,4.03
2022-08-29T19:53:24.661Z,3.75
2022-08-29T19:55:56.275Z,3.80
2022-08-29T19:58:31.298Z,3.97
2022-08-29T20:01:00.333Z,5.22
2022-08-29T20:03:30.679Z,4.80
2022-08-29T20:05:59.644Z,4.75
2022-08-29T20:08:29.167Z,4.63
2022-08-29T20:10:59.749Z,4.60
2022-08-29T20:13:31.575Z,4.30
2022-08-29T20:16:02.445Z,4.40
2022-08-29T20:18:31.937Z,3.88
2022-08-29T20:21:00.244Z,4.45
2022-08-29T20:23:30.234Z,4.45
2022-08-29T20:25:59.959Z,4.97
2022-08-29T20:28:28.666Z,4.20
2022-08-29T20:30:57.349Z,4.53
2022-08-29T20:33:25.960Z,5.10
2022-08-29T20:36:13.138Z,4.53
2022-08-29T20:38:41.428Z,5.07
2022-08-29T20:41:09.602Z,4.90
2022-08-29T20:43:39.258Z,5.18
2022-08-29T20:46:08.594Z,5.35
2022-08-29T20:48:37.924Z,4.88
2022-08-29T20:51:10.897Z,4.80
2022-08-29T20:53:40.583Z,5.15
2022-08-29T20:56:09.562Z,4.80
2022-08-29T20:58:37.720Z,5.10
2022-08-29T21:01:06.311Z,4.82
2022-08-29T21:03:52.730Z,5.10
2022-08-29T21:06:22.663Z,4.93
2022-08-29T21:08:51.260Z,4.88
2022-08-29T21:11:20.806Z,4.90
2022-08-29T21:13:53.168Z,4.85
2022-08-29T21:16:22.039Z,4.72
2022-08-29T21:18:52.369Z,4.47
2022-08-29T21:21:24.834Z,5.18
2022-08-29T21:23:53.577Z,5.05
2022-08-29T21:26:21.714Z,5.20
2022-08-29T21:28:49.958Z,4.93
2022-08-29T21:31:19.484Z,4.90
2022-08-29T21:33:47.805Z,5.75
2022-08-29T21:36:18.828Z,5.40
2022-08-29T21:38:52.346Z,5.18
2022-08-29T21:41:20.540Z,4.97
2022-08-29T21:43:48.896Z,5.13
2022-08-29T21:46:18.764Z,5.40
2022-08-29T21:48:47.313Z,5.20
2022-08-29T21:51:18.682Z,5.10
2022-08-29T21:53:49.608Z,5.25
2022-08-29T21:56:18.351Z,5.50
2022-08-29T21:58:49.644Z,5.57
2022-08-29T22:01:18.118Z,5.35
2022-08-29T22:03:50.083Z,5.22
2022-08-29T22:06:19.143Z,5.13
2022-08-29T22:08:49.136Z,5.50
2022-08-29T22:11:22.446Z,5.50
2022-08-29T22:13:52.455Z,5.55
2022-08-29T22:16:28.744Z,5.40
2022-08-29T22:19:02.768Z,6.30
2022-08-29T22:21:33.117Z,6.22
2022-08-29T22:24:02.993Z,5.95
2022-08-29T22:26:31.217Z,6.18
2022-08-29T22:28:59.360Z,5.65
2022-08-29T22:31:28.035Z,5.30
2022-08-29T22:33:56.194Z,6.03
2022-08-29T22:36:24.750Z,5.70
2022-08-29T22:38:55.392Z,5.97
2022-08-29T22:41:26.305Z,5.25
2022-08-29T22:44:31.683Z,5.45
2022-08-29T22:46:44.800Z,5.63
2022-08-29T22:49:13.500Z,5.40
2022-08-29T22:51:41.682Z,5.65
2022-08-29T22:54:26.938Z,5.43
2022-08-29T22:56:56.542Z,5.43
2022-08-29T22:59:24.712Z,5.70
2022-08-29T23:01:52.961Z,5.28
2022-08-29T23:04:24.172Z,5.65
2022-08-29T23:06:52.258Z,5.70
2022-08-29T23:09:20.448Z,6.03
2022-08-29T23:11:48.874Z,5.78
2022-08-29T23:14:20.609Z,6.00
2022-08-29T23:16:49.560Z,6.38
2022-08-29T23:19:18.110Z,5.70
2022-08-29T23:21:46.293Z,5.80
2022-08-29T23:24:14.645Z,5.57
2022-08-29T23:26:43.337Z,6.28
2022-08-29T23:29:11.626Z,5.65
2022-08-29T23:31:41.468Z,5.82
2022-08-29T23:34:09.712Z,5.85
2022-08-29T23:36:37.874Z,5.85
2022-08-29T23:39:06.553Z,5.95
2022-08-29T23:41:35.398Z,6.05
2022-08-29T23:44:04.046Z,6.15
2022-08-29T23:46:32.243Z,6.18
2022-08-29T23:49:01.807Z,5.90
2022-08-29T23:51:30.002Z,6.18
2022-08-29T23:53:58.372Z,5.88
2022-08-29T23:56:27.004Z,5.90
2022-08-29T23:58:56.710Z,6.32
